createdAt,value
2022-12-06T00:01:25.368Z,4.71
2022-12-06T00:03:54.902Z,4.09
2022-12-06T00:06:24.104Z,4.04
2022-12-06T00:08:52.729Z,4.09
2022-12-06T00:11:24.651Z,3.87
2022-12-06T00:13:54.307Z,3.86
2022-12-06T00:16:22.390Z,3.78
2022-12-06T00:18:50.201Z,4.31
2022-12-06T00:21:20.868Z,4.42
2022-12-06T00:23:50.825Z,5.20
2022-12-06T00:26:19.339Z,5.53
2022-12-06T00:28:49.164Z,5.80
2022-12-06T00:31:20.112Z,6.10
2022-12-06T00:33:48.344Z,6.15
2022-12-06T00:36:18.112Z,6.29
2022-12-06T00:38:46.139Z,6.12
2022-12-06T00:41:15.762Z,5.85
2022-12-06T00:43:43.584Z,5.62
2022-12-06T00:46:17.170Z,5.80
2022-12-06T00:48:45.039Z,5.45
2022-12-06T00:51:12.808Z,5.27
2022-12-06T00:53:40.701Z,5.37
2022-12-06T00:56:08.629Z,5.34
2022-12-06T00:58:36.331Z,5.43
2022-12-06T01:01:13.739Z,5.52
2022-12-06T01:03:41.948Z,5.52
2022-12-06T01:06:11.941Z,5.45
2022-12-06T01:08:40.954Z,5.22
2022-12-06T01:11:09.718Z,5.13
2022-12-06T01:13:37.581Z,5.31
2022-12-06T01:16:06.959Z,5.34
2022-12-06T01:18:36.460Z,5.28
2022-12-06T01:21:06.041Z,5.41
2022-12-06T01:23:33.625Z,5.44
2022-12-06T01:26:01.244Z,5.11
2022-12-06T01:28:28.814Z,5.38
2022-12-06T01:30:56.398Z,5.34
2022-12-06T01:33:24.058Z,5.29
2022-12-06T01:35:52.915Z,5.65
2022-12-06T01:38:20.455Z,5.54
2022-12-06T01:40:48.990Z,5.32
2022-12-06T01:43:34.157Z,4.95
2022-12-06T01:46:08.077Z,5.06
2022-12-06T01:48:36.114Z,5.11
2022-12-06T01:51:08.752Z,4.72
2022-12-06T01:53:37.970Z,5.05
2022-12-06T01:56:06.956Z,4.28
2022-12-06T01:58:38.914Z,4.26
2022-12-06T02:01:07.983Z,4.12
2022-12-06T02:03:36.617Z,4.16
2022-12-06T02:06:08.197Z,4.58
2022-12-06T02:08:37.791Z,4.78
2022-12-06T02:11:06.366Z,5.28
2022-12-06T02:13:36.843Z,5.30
2022-12-06T02:16:23.629Z,4.96
2022-12-06T02:18:56.827Z,4.68
2022-12-06T02:21:32.499Z,4.38
2022-12-06T02:24:22.465Z,4.69
2022-12-06T02:26:52.689Z,5.17
2022-12-06T02:29:44.327Z,5.12
2022-12-06T02:32:19.074Z,5.17
2022-12-06T02:34:50.034Z,5.38
2022-12-06T02:37:23.531Z,5.48
2022-12-06T02:39:56.633Z,5.28
2022-12-06T02:42:28.058Z,5.11
2022-12-06T02:44:57.274Z,5.48
2022-12-06T02:47:31.540Z,5.24
2022-12-06T02:50:01.171Z,5.26
2022-12-06T02:52:30.800Z,5.19
2022-12-06T02:55:01.170Z,5.06
2022-12-06T02:57:40.037Z,5.30
2022-12-06T03:00:29.610Z,5.49
2022-12-06T03:03:08.238Z,5.77
2022-12-06T03:05:40.920Z,5.59
2022-12-06T03:08:18.559Z,5.46
2022-12-06T03:10:53.676Z,5.45
2022-12-06T03:13:27.004Z,5.53
2022-12-06T03:15:59.836Z,5.35
2022-12-06T03:18:33.298Z,5.45
2022-12-06T03:21:03.847Z,5.52
2022-12-06T03:23:36.043Z,5.54
2022-12-06T03:26:05.130Z,5.74
2022-12-06T03:28:36.370Z,5.92
2022-12-06T03:31:10.291Z,6.11
2022-12-06T03:33:43.155Z,6.19
2022-12-06T03:36:13.164Z,6.15
2022-12-06T03:38:47.817Z,6.11
2022-12-06T03:41:19.339Z,5.97
2022-12-06T03:43:46.900Z,5.89
2022-12-06T03:46:18.515Z,5.62
2022-12-06T03:48:50.814Z,4.51
2022-12-06T03:51:24.676Z,4.99
2022-12-06T03:53:54.804Z,5.34
2022-12-06T03:56:23.488Z,5.55
2022-12-06T03:58:51.047Z,5.55
2022-12-06T04:01:18.938Z,5.56
2022-12-06T04:03:47.997Z,5.56
2022-12-06T04:06:15.952Z,5.29
2022-12-06T04:08:43.477Z,5.03
2022-12-06T04:11:10.987Z,4.97
2022-12-06T04:13:38.582Z,4.57
2022-12-06T04:16:27.920Z,5.11
2022-12-06T04:18:56.252Z,5.36
2022-12-06T04:21:41.498Z,5.56
2022-12-06T04:24:09.110Z,5.59
2022-12-06T04:26:36.610Z,5.83
2022-12-06T04:29:21.609Z,5.78
2022-12-06T04:32:06.634Z,5.78
2022-12-06T04:34:53.166Z,5.80
2022-12-06T04:37:38.199Z,5.70
2022-12-06T04:40:07.196Z,5.58
2022-12-06T04:42:52.329Z,5.57
2022-12-06T04:45:19.868Z,5.65
2022-12-06T04:47:47.398Z,5.54
2022-12-06T04:50:16.328Z,5.62
2022-12-06T04:52:43.941Z,5.83
2022-12-06T04:55:11.467Z,5.84
2022-12-06T04:57:39.016Z,5.59
2022-12-06T05:00:08.096Z,5.79
2022-12-06T05:02:35.640Z,5.90
2022-12-06T05:05:03.618Z,5.80
2022-12-06T05:07:32.613Z,5.67
2022-12-06T05:10:00.460Z,5.71
2022-12-06T05:12:28.251Z,5.48
2022-12-06T05:14:55.751Z,5.51
2022-12-06T05:17:23.272Z,5.46
2022-12-06T05:19:50.794Z,5.28
2022-12-06T05:22:18.336Z,5.16
2022-12-06T05:24:47.185Z,5.20
2022-12-06T05:27:14.699Z,5.38
2022-12-06T05:29:42.247Z,5.31
2022-12-06T05:32:09.761Z,5.64
2022-12-06T05:34:37.283Z,5.70
2022-12-06T05:37:04.790Z,5.73
2022-12-06T05:39:32.345Z,5.83
2022-12-06T05:42:01.204Z,5.60
2022-12-06T05:44:28.716Z,5.65
2022-12-06T05:46:56.233Z,5.47
2022-12-06T05:49:23.781Z,5.33
2022-12-06T05:51:51.486Z,5.27
2022-12-06T05:54:19.158Z,5.15
2022-12-06T05:56:46.843Z,5.18
2022-12-06T05:59:15.695Z,5.53
2022-12-06T06:01:43.362Z,5.47
2022-12-06T06:04:11.117Z,5.51
2022-12-06T06:06:38.633Z,5.24
2022-12-06T06:09:06.147Z,5.20
2022-12-06T06:11:33.690Z,5.24
2022-12-06T06:14:01.239Z,5.19
2022-12-06T06:16:30.259Z,5.15
2022-12-06T06:18:57.847Z,5.15
2022-12-06T06:21:25.371Z,5.50
2022-12-06T06:23:52.878Z,5.63
2022-12-06T06:26:20.406Z,5.72
2022-12-06T06:28:48.162Z,5.82
2022-12-06T06:31:16.563Z,5.49
2022-12-06T06:33:45.512Z,4.98
2022-12-06T06:36:13.074Z,5.21
2022-12-06T06:38:40.658Z,5.16
2022-12-06T06:41:08.835Z,5.34
2022-12-06T06:43:36.362Z,5.56
2022-12-06T06:46:06.740Z,5.60
2022-12-06T06:48:36.812Z,5.56
2022-12-06T06:51:09.168Z,5.37
2022-12-06T06:53:37.778Z,5.08
2022-12-06T06:56:05.812Z,5.13
2022-12-06T06:58:33.491Z,5.29
2022-12-06T07:01:03.145Z,4.99
2022-12-06T07:03:31.240Z,4.98
2022-12-06T07:06:01.036Z,5.34
2022-12-06T07:08:31.870Z,5.07
2022-12-06T07:10:59.899Z,5.03
2022-12-06T07:13:29.770Z,4.85
2022-12-06T07:15:58.279Z,4.95
2022-12-06T07:18:26.497Z,5.00
2022-12-06T07:21:00.295Z,5.26
2022-12-06T07:23:28.318Z,5.47
2022-12-06T07:26:02.631Z,4.91
2022-12-06T07:28:30.206Z,5.35
2022-12-06T07:30:57.880Z,5.74
2022-12-06T07:33:25.508Z,6.01
2022-12-06T07:38:42.473Z,6.05
2022-12-06T07:41:31.055Z,6.08
2022-12-06T07:44:16.968Z,5.65
2022-12-06T07:46:44.608Z,5.57
2022-12-06T07:49:12.566Z,5.22
2022-12-06T07:51:40.824Z,5.17
2022-12-06T07:54:09.008Z,5.33
2022-12-06T07:56:37.992Z,5.45
2022-12-06T07:59:05.586Z,5.63
2022-12-06T08:01:33.198Z,5.85
2022-12-06T08:04:01.684Z,5.63
2022-12-06T08:06:29.536Z,5.83
2022-12-06T08:08:57.173Z,6.19
2022-12-06T08:11:24.996Z,5.85
2022-12-06T08:13:53.840Z,6.01
2022-12-06T08:16:21.447Z,6.13
2022-12-06T08:18:49.704Z,6.35
2022-12-06T08:21:18.541Z,6.23
2022-12-06T08:23:46.079Z,6.34
2022-12-06T08:26:16.628Z,6.55
2022-12-06T08:28:44.176Z,6.33
2022-12-06T08:31:15.337Z,6.64
2022-12-06T08:33:42.987Z,6.46
2022-12-06T08:36:12.840Z,6.25
2022-12-06T08:38:41.238Z,6.51
2022-12-06T08:41:30.176Z,6.52
2022-12-06T08:43:59.528Z,6.53
2022-12-06T08:46:30.091Z,6.35
2022-12-06T08:48:58.140Z,6.31
2022-12-06T08:51:29.552Z,6.29
2022-12-06T08:53:57.870Z,5.81
2022-12-06T08:56:25.611Z,5.79
2022-12-06T08:58:53.946Z,5.72
2022-12-06T09:01:24.885Z,5.94
2022-12-06T09:03:54.080Z,5.91
2022-12-06T09:06:22.934Z,6.15
2022-12-06T09:08:50.778Z,6.18
2022-12-06T09:11:19.336Z,5.93
2022-12-06T09:13:47.276Z,6.11
2022-12-06T09:16:16.977Z,6.22
2022-12-06T09:18:45.054Z,6.16
2022-12-06T09:21:16.892Z,6.06
2022-12-06T09:23:47.358Z,5.65
2022-12-06T09:26:15.479Z,5.62
2022-12-06T09:28:44.489Z,5.67
2022-12-06T09:31:12.257Z,5.55
2022-12-06T09:33:39.814Z,5.69
2022-12-06T09:36:12.989Z,5.85
2022-12-06T09:38:44.996Z,6.30
2022-12-06T09:41:29.167Z,6.64
2022-12-06T09:44:09.647Z,6.26
2022-12-06T09:46:53.892Z,6.14
2022-12-06T09:49:30.687Z,5.43
2022-12-06T09:52:20.580Z,5.46
2022-12-06T09:55:06.068Z,5.26
2022-12-06T09:57:43.036Z,5.40
2022-12-06T10:00:18.977Z,5.57
2022-12-06T10:03:15.388Z,6.13
2022-12-06T10:05:58.012Z,6.42
2022-12-06T10:08:43.704Z,6.18
2022-12-06T10:11:21.554Z,6.02
2022-12-06T10:14:01.009Z,6.07
2022-12-06T10:16:47.292Z,6.09
2022-12-06T10:19:24.636Z,6.71
2022-12-06T10:22:04.802Z,6.78
2022-12-06T10:24:45.320Z,6.19
2022-12-06T10:27:23.943Z,6.36
2022-12-06T10:29:57.293Z,5.88
2022-12-06T10:32:39.266Z,5.96
2022-12-06T10:35:18.561Z,5.38
2022-12-06T10:37:59.175Z,5.43
2022-12-06T10:40:31.794Z,5.35
2022-12-06T10:43:10.976Z,5.72
2022-12-06T10:46:05.647Z,5.65
2022-12-06T10:48:42.560Z,5.14
2022-12-06T10:51:15.438Z,5.76
2022-12-06T10:53:48.464Z,5.60
2022-12-06T10:56:20.610Z,5.69
2022-12-06T10:58:56.236Z,5.74
2022-12-06T11:01:28.269Z,5.99
2022-12-06T11:04:01.600Z,5.61
2022-12-06T11:06:33.042Z,5.92
2022-12-06T11:09:06.903Z,6.13
2022-12-06T11:11:37.439Z,5.96
2022-12-06T11:14:15.155Z,5.63
2022-12-06T11:16:48.731Z,5.65
2022-12-06T11:19:24.145Z,5.72
2022-12-06T11:21:56.388Z,5.67
2022-12-06T11:24:29.907Z,5.62
2022-12-06T11:27:02.473Z,5.62
2022-12-06T11:29:31.561Z,5.86
2022-12-06T11:32:02.699Z,5.72
2022-12-06T11:34:33.932Z,5.56
2022-12-06T11:37:03.454Z,5.43
2022-12-06T11:39:32.491Z,5.42
2022-12-06T11:42:03.945Z,5.52
2022-12-06T11:44:44.975Z,5.21
2022-12-06T11:47:20.236Z,5.10
2022-12-06T11:49:48.536Z,5.38
2022-12-06T11:52:22.838Z,5.43
2022-12-06T11:54:55.922Z,5.12
2022-12-06T11:57:26.598Z,5.20
2022-12-06T12:00:16.527Z,5.09
2022-12-06T12:02:46.374Z,5.21
2022-12-06T12:05:20.459Z,5.17
2022-12-06T12:07:51.695Z,5.36
2022-12-06T12:10:30.382Z,5.14
2022-12-06T12:13:22.746Z,5.17
2022-12-06T12:15:54.201Z,5.34
2022-12-06T12:18:26.688Z,5.21
2022-12-06T12:20:55.866Z,5.50
2022-12-06T12:23:27.270Z,5.46
2022-12-06T12:26:05.750Z,5.19
2022-12-06T12:28:35.478Z,5.19
2022-12-06T12:31:12.867Z,5.18
2022-12-06T12:33:40.377Z,5.14
2022-12-06T12:36:17.774Z,5.14
2022-12-06T12:38:54.738Z,5.68
2022-12-06T12:41:30.098Z,5.95
2022-12-06T12:44:35.962Z,4.98
2022-12-06T12:46:55.369Z,5.21
2022-12-06T12:49:27.883Z,5.29
2022-12-06T12:51:55.557Z,5.27
2022-12-06T12:54:27.760Z,5.26
2022-12-06T12:56:55.566Z,4.97
2022-12-06T12:59:25.199Z,5.13
2022-12-06T13:01:59.371Z,5.45
2022-12-06T13:04:42.322Z,5.78
2022-12-06T13:07:18.172Z,5.50
2022-12-06T13:09:52.437Z,5.03
2022-12-06T13:12:24.309Z,5.27
2022-12-06T13:14:55.038Z,5.06
2022-12-06T13:17:27.776Z,4.94
2022-12-06T13:19:55.461Z,4.86
2022-12-06T13:22:30.654Z,5.06
2022-12-06T13:25:02.424Z,5.37
2022-12-06T13:27:33.809Z,5.08
2022-12-06T13:30:07.284Z,5.20
2022-12-06T13:32:45.127Z,5.07
2022-12-06T13:35:22.921Z,5.15
2022-12-06T13:37:56.126Z,5.12
2022-12-06T13:40:47.308Z,5.04
2022-12-06T13:43:54.632Z,5.27
2022-12-06T13:46:32.209Z,5.16
2022-12-06T13:49:03.538Z,5.23
2022-12-06T13:51:49.580Z,5.47
2022-12-06T13:54:33.426Z,5.36
2022-12-06T13:57:04.801Z,5.77
2022-12-06T13:59:37.827Z,6.27
2022-12-06T14:02:53.702Z,6.08
2022-12-06T14:08:32.376Z,5.87
2022-12-06T14:11:07.974Z,5.81
2022-12-06T14:13:35.517Z,5.57
2022-12-06T14:16:03.152Z,5.51
2022-12-06T14:18:30.776Z,5.59
2022-12-06T14:20:59.794Z,5.70
2022-12-06T14:23:30.563Z,5.24
2022-12-06T14:26:21.262Z,5.64
2022-12-06T14:28:49.803Z,5.58
2022-12-06T14:31:26.705Z,5.48
2022-12-06T14:33:55.530Z,5.51
2022-12-06T14:36:28.063Z,5.33
2022-12-06T14:39:01.583Z,5.30
2022-12-06T14:41:55.357Z,5.38
2022-12-06T14:44:28.998Z,5.18
2022-12-06T14:46:57.821Z,4.97
2022-12-06T14:49:44.148Z,5.09
2022-12-06T14:52:25.392Z,4.82
2022-12-06T14:55:07.816Z,5.13
2022-12-06T14:57:39.041Z,4.78
2022-12-06T15:00:25.259Z,5.06
2022-12-06T15:03:22.604Z,4.75
2022-12-06T15:05:57.188Z,4.63
2022-12-06T15:08:36.552Z,5.27
2022-12-06T15:11:06.910Z,4.81
2022-12-06T15:13:33.480Z,4.46
2022-12-06T15:16:13.685Z,3.93
2022-12-06T15:18:43.135Z,3.88
2022-12-06T15:21:13.083Z,3.63
2022-12-06T15:23:48.874Z,3.67
2022-12-06T15:26:16.775Z,4.18
2022-12-06T15:28:44.697Z,3.99
2022-12-06T15:31:19.081Z,3.96
2022-12-06T15:33:46.831Z,3.91
2022-12-06T15:36:17.916Z,4.02
2022-12-06T15:38:46.903Z,3.91
2022-12-06T15:41:17.488Z,3.58
2022-12-06T15:43:46.022Z,3.50
2022-12-06T15:46:18.613Z,3.57
2022-12-06T15:48:46.345Z,3.71
2022-12-06T15:51:20.344Z,3.56
2022-12-06T15:53:50.853Z,3.84
2022-12-06T15:56:20.559Z,4.02
2022-12-06T15:58:48.960Z,3.87
2022-12-06T16:01:18.319Z,3.48
2022-12-06T16:03:47.156Z,3.51
2022-12-06T16:06:16.345Z,3.59
2022-12-06T16:08:44.606Z,3.37
2022-12-06T16:11:15.393Z,3.38
2022-12-06T16:13:43.507Z,3.44
2022-12-06T16:16:11.541Z,3.19
2022-12-06T16:18:39.524Z,3.26
2022-12-06T16:21:07.451Z,3.19
2022-12-06T16:26:44.293Z,3.27
2022-12-06T16:29:14.379Z,3.23
2022-12-06T16:31:42.222Z,3.11
2022-12-06T16:34:10.310Z,3.12
2022-12-06T16:36:55.116Z,3.06
2022-12-06T16:39:22.728Z,2.97
2022-12-06T16:41:51.666Z,3.02
2022-12-06T16:44:19.206Z,3.03
2022-12-06T16:46:46.849Z,3.05
2022-12-06T16:52:06.014Z,3.02
2022-12-06T16:54:33.538Z,2.98
2022-12-06T16:57:02.484Z,2.87
2022-12-06T16:59:30.052Z,2.81
2022-12-06T17:01:57.579Z,2.90
2022-12-06T17:04:26.000Z,2.92
2022-12-06T17:06:53.517Z,2.85
2022-12-06T17:09:21.026Z,2.89
2022-12-06T17:12:06.016Z,2.75
2022-12-06T17:14:36.041Z,2.62
2022-12-06T17:17:06.506Z,2.52
2022-12-06T17:19:34.635Z,2.54
2022-12-06T17:22:03.262Z,2.69
2022-12-06T17:24:31.108Z,2.59
2022-12-06T17:26:58.958Z,2.62
2022-12-06T17:29:26.945Z,2.66
2022-12-06T17:31:56.667Z,2.62
2022-12-06T17:34:25.657Z,2.80
2022-12-06T17:36:53.732Z,2.94
2022-12-06T17:39:22.378Z,2.93
2022-12-06T17:42:07.718Z,3.01
2022-12-06T17:44:35.344Z,2.96
2022-12-06T17:47:04.271Z,2.71
2022-12-06T17:49:31.822Z,2.58
2022-12-06T17:51:59.382Z,2.47
2022-12-06T17:54:26.886Z,2.46
2022-12-06T17:56:55.874Z,2.56
2022-12-06T17:59:25.987Z,2.63
2022-12-06T18:02:14.687Z,2.55
2022-12-06T18:04:44.993Z,2.45
2022-12-06T18:07:13.656Z,2.51
2022-12-06T18:09:41.573Z,2.59
2022-12-06T18:12:09.962Z,2.48
2022-12-06T18:14:37.607Z,2.69
2022-12-06T18:17:05.552Z,2.79
2022-12-06T18:19:36.419Z,2.52
2022-12-06T18:22:07.680Z,2.57
2022-12-06T18:24:36.145Z,2.54
2022-12-06T18:27:04.714Z,2.70
2022-12-06T18:29:32.923Z,2.87
2022-12-06T18:32:00.564Z,2.84
2022-12-06T18:34:28.204Z,2.66
2022-12-06T18:36:55.756Z,2.73
2022-12-06T18:39:25.283Z,2.81
2022-12-06T18:41:53.901Z,2.75
2022-12-06T18:44:21.511Z,2.92
2022-12-06T18:46:49.077Z,2.83
2022-12-06T18:49:16.829Z,2.90
2022-12-06T18:51:44.371Z,2.62
2022-12-06T19:04:35.296Z,2.60
2022-12-06T19:07:02.798Z,2.61
2022-12-06T19:09:30.318Z,2.75
2022-12-06T19:11:57.835Z,2.53
2022-12-06T19:14:25.340Z,2.52
2022-12-06T19:16:54.272Z,2.50
2022-12-06T19:19:23.825Z,2.78
2022-12-06T19:21:52.806Z,2.88
2022-12-06T19:24:22.359Z,2.96
2022-12-06T19:26:51.783Z,2.71
2022-12-06T19:29:19.710Z,2.79
2022-12-06T19:31:47.360Z,3.00
2022-12-06T19:34:18.703Z,2.64
2022-12-06T19:36:46.987Z,2.75
2022-12-06T19:39:14.770Z,2.84
2022-12-06T19:42:00.102Z,2.73
2022-12-06T19:44:28.880Z,2.72
2022-12-06T19:46:57.302Z,3.02
2022-12-06T19:49:27.123Z,2.92
2022-12-06T19:51:54.710Z,3.11
2022-12-06T19:54:24.786Z,2.90
2022-12-06T19:56:54.133Z,2.85
2022-12-06T19:59:22.260Z,2.68
2022-12-06T20:01:50.448Z,2.55
2022-12-06T20:04:20.475Z,2.75
2022-12-06T20:06:49.669Z,3.12
2022-12-06T20:09:18.066Z,3.28
2022-12-06T20:12:05.253Z,2.75
2022-12-06T20:14:36.803Z,2.70
2022-12-06T20:17:06.867Z,2.78
2022-12-06T20:19:34.895Z,2.72
2022-12-06T20:22:03.980Z,2.69
2022-12-06T20:24:31.532Z,2.78
2022-12-06T20:26:59.018Z,2.92
2022-12-06T20:29:29.771Z,2.80
2022-12-06T20:31:59.284Z,2.65
2022-12-06T20:34:28.808Z,2.54
2022-12-06T20:36:56.440Z,2.57
2022-12-06T20:39:27.586Z,2.58
2022-12-06T20:41:55.441Z,2.46
2022-12-06T20:44:23.208Z,2.57
2022-12-06T20:46:51.278Z,2.38
2022-12-06T20:49:18.846Z,2.28
2022-12-06T20:51:52.437Z,2.22
2022-12-06T20:54:21.035Z,2.21
2022-12-06T20:56:51.617Z,2.32
2022-12-06T20:59:19.727Z,2.34
2022-12-06T21:01:47.615Z,2.35
2022-12-06T21:04:15.772Z,2.26
2022-12-06T21:06:43.687Z,2.29
2022-12-06T21:09:11.293Z,2.33
2022-12-06T21:11:38.909Z,2.33
2022-12-06T21:14:07.776Z,2.41
2022-12-06T21:16:38.037Z,2.45
2022-12-06T21:19:07.024Z,2.45
2022-12-06T21:21:36.336Z,2.33
2022-12-06T21:24:05.892Z,2.20
2022-12-06T21:26:34.240Z,2.23
2022-12-06T21:29:01.803Z,2.21
2022-12-06T21:31:33.620Z,2.33
2022-12-06T21:34:01.426Z,2.28
2022-12-06T21:36:29.624Z,2.24
2022-12-06T21:38:58.181Z,2.34
2022-12-06T21:41:26.566Z,2.36
2022-12-06T21:43:54.291Z,2.48
2022-12-06T21:46:24.191Z,2.54
2022-12-06T21:48:54.031Z,2.57
2022-12-06T21:51:22.105Z,2.59
2022-12-06T21:53:50.273Z,2.45
2022-12-06T21:56:20.426Z,2.44
2022-12-06T21:58:48.956Z,2.33
2022-12-06T22:01:18.318Z,2.62
2022-12-06T22:03:48.977Z,2.64
2022-12-06T22:06:18.389Z,2.66
2022-12-06T22:08:47.345Z,2.63
2022-12-06T22:11:16.628Z,2.59
2022-12-06T22:13:44.895Z,2.42
2022-12-06T22:16:13.563Z,2.60
2022-12-06T22:18:45.753Z,2.39
2022-12-06T22:21:15.695Z,2.43
2022-12-06T22:23:45.056Z,2.55
2022-12-06T22:26:15.631Z,2.43
2022-12-06T22:28:43.389Z,2.34
2022-12-06T22:31:12.289Z,2.24
2022-12-06T22:33:40.229Z,2.26
2022-12-06T22:36:08.957Z,2.20
2022-12-06T22:38:36.683Z,2.20
2022-12-06T22:41:06.885Z,2.25
2022-12-06T22:43:35.131Z,2.22
2022-12-06T22:46:07.371Z,2.16
2022-12-06T22:48:35.180Z,2.18
2022-12-06T22:51:10.847Z,2.22
2022-12-06T22:53:38.520Z,2.34
2022-12-06T22:56:07.930Z,2.30
2022-12-06T22:58:35.494Z,2.34
2022-12-06T23:01:11.887Z,2.25
2022-12-06T23:03:43.860Z,2.35
2022-12-06T23:06:11.434Z,2.54
2022-12-06T23:08:39.070Z,2.54
2022-12-06T23:11:11.096Z,2.75
2022-12-06T23:13:38.598Z,2.81
2022-12-06T23:16:08.358Z,2.54
2022-12-06T23:18:36.247Z,2.77
2022-12-06T23:21:06.689Z,2.91
2022-12-06T23:23:34.922Z,2.79
2022-12-06T23:26:03.702Z,2.77
2022-12-06T23:28:33.561Z,2.88
2022-12-06T23:31:05.477Z,2.81
2022-12-06T23:33:33.405Z,2.93
2022-12-06T23:36:07.436Z,2.86
2022-12-06T23:38:35.727Z,2.83
2022-12-06T23:41:05.065Z,2.64
2022-12-06T23:43:34.383Z,2.95
2022-12-06T23:46:07.103Z,2.95
2022-12-06T23:48:35.865Z,3.39
2022-12-06T23:51:05.296Z,3.41
2022-12-06T23:53:33.162Z,3.53
2022-12-06T23:56:02.249Z,3.29
2022-12-06T23:58:29.993Z,3.52
